Time;durP1;ratioP1;P1;durP2;ratioP2;P2;SDS_P1;SDS_P2;PMS_P1;PMS_P2;Temp;Humidity;BMP_temperature;BMP_pressure;BME280_temperature;BME280_humidity;BME280_pressure;Samples;Min_cycle;Max_cycle;Signal;HPM_P1;HPM_P2
2022/07/23 00:01:30;;;;;;;6.20;5.80;;;29.70;42.20;;;;;;5030837;28;20304;-47
2022/07/23 00:03:56;;;;;;;6.83;6.27;;;29.70;41.90;;;;;;5030512;28;20193;-45
2022/07/23 00:06:23;;;;;;;6.37;5.87;;;29.70;42.10;;;;;;5030671;28;20428;-45
2022/07/23 00:08:49;;;;;;;7.10;5.63;;;29.60;42.40;;;;;;5029976;28;20193;-45
2022/07/23 00:11:14;;;;;;;6.77;6.07;;;29.40;42.40;;;;;;5030669;28;20435;-45
2022/07/23 00:13:40;;;;;;;6.50;5.90;;;29.30;42.90;;;;;;5030311;28;20490;-44
2022/07/23 00:16:06;;;;;;;6.50;5.90;;;29.30;43.00;;;;;;5030352;28;20200;-49
2022/07/23 00:18:32;;;;;;;5.90;5.47;;;29.30;43.00;;;;;;5029737;28;20205;-48
2022/07/23 00:20:57;;;;;;;6.30;5.80;;;29.20;42.90;;;;;;5030649;28;20216;-47
2022/07/23 00:23:24;;;;;;;5.70;5.20;;;29.20;42.90;;;;;;5028503;28;20248;-46
2022/07/23 00:25:51;;;;;;;5.70;5.20;;;28.90;42.80;;;;;;5030466;28;20221;-45
2022/07/23 00:28:18;;;;;;;5.50;5.00;;;29.00;42.80;;;;;;5029284;28;20434;-45
2022/07/23 00:30:44;;;;;;;5.30;4.90;;;28.90;42.70;;;;;;5030356;28;21246;-45
2022/07/23 00:33:10;;;;;;;5.40;4.90;;;28.90;42.30;;;;;;5030071;28;20431;-49
2022/07/23 00:35:40;;;;;;;4.40;4.10;;;28.80;42.30;;;;;;5030347;28;20420;-46
2022/07/23 00:38:07;;;;;;;5.20;4.80;;;28.70;42.50;;;;;;5029024;28;20499;-48
2022/07/23 00:40:33;;;;;;;5.50;5.10;;;28.40;42.50;;;;;;5030424;28;20493;-48
2022/07/23 00:42:59;;;;;;;5.63;5.13;;;28.30;42.60;;;;;;5029750;28;20424;-45
2022/07/23 00:45:25;;;;;;;5.07;4.67;;;28.40;42.70;;;;;;5023142;28;20193;-45
2022/07/23 00:47:51;;;;;;;4.67;4.27;;;28.30;42.50;;;;;;5029555;28;20439;-49
2022/07/23 00:50:17;;;;;;;4.87;4.57;;;28.50;42.50;;;;;;5028616;28;20424;-45
2022/07/23 00:52:43;;;;;;;4.20;3.90;;;28.40;43.50;;;;;;5029699;28;21072;-45
2022/07/23 00:55:10;;;;;;;4.83;4.20;;;28.40;45.00;;;;;;5030177;28;20663;-48
2022/07/23 00:57:37;;;;;;;5.20;4.70;;;28.20;46.00;;;;;;5029890;28;20225;-45
2022/07/23 01:00:05;;;;;;;6.17;5.67;;;28.10;46.10;;;;;;5029347;28;20432;-49
2022/07/23 01:02:31;;;;;;;5.37;4.43;;;28.10;46.60;;;;;;5030148;28;20439;-47
2022/07/23 01:04:56;;;;;;;7.10;4.53;;;28.00;46.10;;;;;;5030841;28;20416;-46
2022/07/23 01:07:23;;;;;;;4.67;4.37;;;28.10;46.20;;;;;;5034035;28;20268;-49
2022/07/23 01:09:50;;;;;;;4.50;4.20;;;28.20;46.00;;;;;;5032970;28;20185;-45
2022/07/23 01:12:16;;;;;;;4.60;4.20;;;28.40;45.90;;;;;;5034136;28;20538;-48
2022/07/23 01:14:41;;;;;;;4.97;4.57;;;28.40;45.80;;;;;;5033413;28;20519;-47
2022/07/23 01:17:07;;;;;;;5.53;5.03;;;28.20;45.70;;;;;;5032458;28;20224;-44
2022/07/23 01:19:32;;;;;;;4.97;4.67;;;28.10;45.80;;;;;;5032590;28;20274;-45
2022/07/23 01:22:02;;;;;;;6.77;4.60;;;27.90;45.70;;;;;;5033880;28;20606;-46
2022/07/23 01:24:28;;;;;;;5.00;4.67;;;27.90;45.30;;;;;;5033297;28;20307;-46
2022/07/23 01:26:54;;;;;;;4.20;3.90;;;28.00;45.40;;;;;;5033585;28;20408;-49
2022/07/23 01:29:21;;;;;;;4.77;4.10;;;28.20;45.40;;;;;;5032635;28;20934;-44
2022/07/23 01:31:47;;;;;;;4.57;4.27;;;28.30;45.10;;;;;;5033531;28;20199;-46
2022/07/23 01:34:13;;;;;;;5.10;4.60;;;28.50;44.60;;;;;;5032731;28;20474;-46
2022/07/23 01:36:39;;;;;;;4.50;4.20;;;28.70;44.20;;;;;;5033401;28;20495;-46
2022/07/23 01:39:06;;;;;;;4.30;4.00;;;28.60;44.00;;;;;;5032466;28;20421;-46
2022/07/23 01:41:32;;;;;;;5.00;4.60;;;28.60;43.90;;;;;;5033482;28;20527;-45
2022/07/23 01:43:57;;;;;;;4.80;4.40;;;28.60;43.70;;;;;;5031085;28;20990;-45
2022/07/23 01:46:23;;;;;;;4.53;4.13;;;28.60;43.80;;;;;;5026569;28;20284;-46
2022/07/23 01:48:49;;;;;;;5.17;4.77;;;28.50;43.80;;;;;;5032440;28;20185;-49
2022/07/23 01:51:15;;;;;;;4.00;3.70;;;28.60;43.80;;;;;;5033166;28;20197;-45
2022/07/23 01:53:41;;;;;;;5.00;4.60;;;28.60;43.60;;;;;;5032578;28;20428;-45
2022/07/23 01:56:06;;;;;;;4.20;3.90;;;28.70;43.10;;;;;;5033156;28;20212;-47
2022/07/23 01:58:32;;;;;;;4.73;4.43;;;28.90;43.00;;;;;;5032055;28;20220;-45
2022/07/23 02:00:58;;;;;;;4.43;4.03;;;29.00;42.90;;;;;;5032792;28;20251;-45
2022/07/23 02:03:24;;;;;;;5.33;4.13;;;29.10;43.00;;;;;;5032143;28;20199;-45
2022/07/23 02:05:49;;;;;;;4.37;3.97;;;29.10;42.90;;;;;;5033028;28;20268;-45
2022/07/23 02:08:16;;;;;;;6.93;4.60;;;29.20;42.70;;;;;;5032032;28;20276;-45
2022/07/23 02:10:41;;;;;;;4.70;4.30;;;29.20;42.50;;;;;;5031263;28;20247;-46
2022/07/23 02:13:07;;;;;;;6.53;4.47;;;29.30;42.40;;;;;;5032215;28;20428;-45
2022/07/23 02:15:33;;;;;;;3.70;3.40;;;29.30;42.40;;;;;;5032653;28;20204;-45
2022/07/23 02:17:59;;;;;;;5.03;4.63;;;29.30;42.40;;;;;;5031845;28;21006;-45
2022/07/23 02:20:24;;;;;;;4.50;4.20;;;29.30;42.30;;;;;;5032673;28;20197;-45
2022/07/23 02:22:50;;;;;;;4.47;4.17;;;29.30;42.20;;;;;;5032073;28;20239;-48
2022/07/23 02:25:16;;;;;;;4.30;4.00;;;29.30;42.10;;;;;;5032323;28;20201;-46
2022/07/23 02:27:41;;;;;;;4.20;3.90;;;29.30;42.20;;;;;;5031608;28;20225;-46
2022/07/23 02:30:08;;;;;;;5.13;4.63;;;29.30;42.40;;;;;;5032696;28;20249;-45
2022/07/23 02:32:35;;;;;;;5.40;4.70;;;29.30;42.80;;;;;;5032351;28;20194;-46
2022/07/23 02:35:01;;;;;;;5.17;4.83;;;29.30;43.00;;;;;;5031896;28;20471;-46
2022/07/23 02:37:26;;;;;;;5.20;4.80;;;29.30;43.70;;;;;;5030504;28;20520;-45
2022/07/23 02:39:52;;;;;;;5.03;4.63;;;29.10;43.20;;;;;;5031700;28;20229;-44
2022/07/23 02:42:18;;;;;;;4.63;4.33;;;29.00;43.30;;;;;;5031911;28;20711;-45
2022/07/23 02:44:44;;;;;;;5.00;4.70;;;29.00;43.30;;;;;;5026569;28;20208;-44
2022/07/23 02:47:09;;;;;;;5.13;4.80;;;29.00;43.40;;;;;;5030292;28;20190;-45
2022/07/23 02:49:35;;;;;;;4.90;4.50;;;28.90;43.60;;;;;;5031324;28;20189;-48
2022/07/23 02:52:00;;;;;;;5.33;4.90;;;28.90;43.70;;;;;;5032087;28;20923;-45
2022/07/23 02:54:26;;;;;;;4.90;4.40;;;28.90;44.50;;;;;;5031284;28;20208;-45
2022/07/23 02:56:52;;;;;;;5.07;4.77;;;28.90;43.80;;;;;;5031867;28;20224;-45
2022/07/23 02:59:18;;;;;;;9.90;4.93;;;28.80;43.90;;;;;;5031032;28;20190;-46
2022/07/23 03:01:44;;;;;;;5.10;4.70;;;28.80;44.20;;;;;;5031601;28;20197;-44
2022/07/23 03:04:10;;;;;;;5.30;4.90;;;28.80;44.40;;;;;;5029816;28;20431;-46
2022/07/23 03:06:36;;;;;;;5.70;5.30;;;28.60;44.50;;;;;;5032046;28;20851;-46
2022/07/23 03:09:02;;;;;;;5.73;5.13;;;28.50;44.80;;;;;;5030769;28;20460;-47
2022/07/23 03:11:28;;;;;;;5.27;4.57;;;28.60;45.00;;;;;;5031690;28;20247;-45
2022/07/23 03:13:54;;;;;;;4.67;4.33;;;28.50;45.30;;;;;;5031149;28;20899;-44
2022/07/23 03:16:19;;;;;;;5.20;4.80;;;28.60;45.30;;;;;;5031458;28;20555;-45
2022/07/23 03:18:45;;;;;;;5.30;4.90;;;28.60;45.10;;;;;;5030612;28;20213;-45
2022/07/23 03:21:10;;;;;;;6.00;5.40;;;28.70;45.00;;;;;;5031685;28;20216;-45
2022/07/23 03:23:36;;;;;;;5.60;5.10;;;28.60;44.90;;;;;;5030946;28;20224;-45
2022/07/23 03:26:02;;;;;;;5.87;5.40;;;28.70;44.90;;;;;;5031520;28;20208;-44
2022/07/23 03:28:27;;;;;;;5.03;4.67;;;28.70;44.90;;;;;;5029880;28;20292;-45
2022/07/23 03:30:53;;;;;;;6.10;5.60;;;28.70;44.80;;;;;;5029586;28;20683;-47
2022/07/23 03:33:20;;;;;;;7.30;6.70;;;28.70;44.80;;;;;;5030734;28;20193;-45
2022/07/23 03:35:47;;;;;;;6.90;6.23;;;28.70;44.90;;;;;;5031160;28;20189;-48
2022/07/23 03:38:13;;;;;;;6.47;5.90;;;28.70;45.00;;;;;;5030186;28;20574;-46
2022/07/23 03:40:39;;;;;;;5.47;5.03;;;28.70;45.00;;;;;;5031307;28;20412;-45
2022/07/23 03:43:04;;;;;;;5.90;5.50;;;28.70;44.90;;;;;;5030552;28;20424;-45
2022/07/23 03:45:30;;;;;;;5.93;5.17;;;28.60;45.10;;;;;;5028234;28;20189;-45
2022/07/23 03:47:56;;;;;;;5.60;5.07;;;28.60;45.10;;;;;;5030458;28;20205;-46
2022/07/23 03:50:22;;;;;;;5.67;5.27;;;28.60;45.00;;;;;;5031037;28;20511;-45
2022/07/23 03:52:48;;;;;;;4.87;4.57;;;28.60;45.10;;;;;;5030591;28;20200;-46
2022/07/23 03:55:13;;;;;;;5.87;5.43;;;28.60;45.60;;;;;;5030815;28;20606;-46
2022/07/23 03:57:39;;;;;;;5.20;4.80;;;28.50;45.60;;;;;;5029187;28;20251;-44
2022/07/23 04:00:08;;;;;;;5.97;5.47;;;28.60;45.50;;;;;;5030492;28;20204;-48
2022/07/23 04:02:33;;;;;;;5.63;5.13;;;28.60;45.70;;;;;;5030878;28;20560;-45
2022/07/23 04:05:00;;;;;;;5.83;5.30;;;28.50;46.10;;;;;;5029825;28;20432;-45
2022/07/23 04:07:26;;;;;;;5.67;5.20;;;28.50;46.10;;;;;;5030536;28;20653;-45
2022/07/23 04:09:51;;;;;;;5.37;4.97;;;28.40;46.00;;;;;;5029715;28;20478;-46
2022/07/23 04:12:17;;;;;;;5.53;5.13;;;28.40;46.20;;;;;;5030577;28;20193;-46
2022/07/23 04:14:43;;;;;;;5.67;5.27;;;28.40;46.10;;;;;;5029932;28;20307;-47
2022/07/23 04:17:09;;;;;;;5.63;5.13;;;28.30;46.40;;;;;;5030616;28;20856;-46
2022/07/23 04:19:39;;;;;;;5.73;5.33;;;28.10;46.80;;;;;;5029615;28;20276;-46
2022/07/23 04:22:08;;;;;;;6.03;5.53;;;28.10;46.80;;;;;;5030634;28;20204;-46
2022/07/23 04:24:34;;;;;;;5.13;4.73;;;27.90;47.30;;;;;;5028563;28;21134;-46
2022/07/23 04:27:01;;;;;;;6.00;5.50;;;27.90;47.50;;;;;;5030111;28;20427;-45
2022/07/23 04:29:27;;;;;;;5.63;5.13;;;27.80;47.50;;;;;;5029525;28;20797;-44
2022/07/23 04:31:52;;;;;;;5.77;5.17;;;27.90;47.90;;;;;;5030323;28;20434;-44
2022/07/23 04:34:18;;;;;;;5.50;5.03;;;28.00;47.20;;;;;;5029785;28;20256;-45
2022/07/23 04:36:44;;;;;;;6.00;5.40;;;27.80;47.50;;;;;;5030075;28;20241;-44
2022/07/23 04:39:10;;;;;;;6.90;6.20;;;27.40;48.40;;;;;;5031428;28;20200;-44
2022/07/23 04:41:35;;;;;;;5.63;5.17;;;27.20;48.90;;;;;;5034335;28;20424;-45
2022/07/23 04:44:02;;;;;;;6.13;5.63;;;27.10;49.20;;;;;;5032542;28;20201;-44
2022/07/23 04:46:27;;;;;;;5.33;4.83;;;27.20;49.10;;;;;;5034425;28;20208;-44
2022/07/23 04:48:53;;;;;;;6.27;5.20;;;27.10;49.50;;;;;;5033385;28;20794;-44
2022/07/23 04:51:19;;;;;;;6.73;5.90;;;26.90;49.60;;;;;;5033888;28;20197;-47
2022/07/23 04:53:44;;;;;;;9.13;8.00;;;26.90;50.10;;;;;;5032599;28;20216;-46
2022/07/23 04:56:10;;;;;;;7.90;6.60;;;26.90;49.90;;;;;;5034364;28;20220;-44
2022/07/23 04:58:36;;;;;;;6.90;6.30;;;27.00;49.80;;;;;;5033116;28;20193;-45
2022/07/23 05:01:01;;;;;;;5.80;5.13;;;27.10;49.20;;;;;;5034235;28;20193;-44
2022/07/23 05:03:27;;;;;;;5.50;5.00;;;27.30;48.60;;;;;;5033802;28;20256;-44
2022/07/23 05:05:53;;;;;;;5.67;5.20;;;27.40;48.10;;;;;;5034186;28;20193;-45
2022/07/23 05:08:18;;;;;;;5.67;5.17;;;27.60;47.90;;;;;;5032970;28;20699;-45
2022/07/23 05:10:44;;;;;;;6.77;5.40;;;27.70;47.70;;;;;;5034177;28;20188;-44
2022/07/23 05:13:09;;;;;;;6.10;5.50;;;27.70;48.20;;;;;;5033614;28;20216;-44
2022/07/23 05:15:35;;;;;;;5.70;5.20;;;27.50;48.60;;;;;;5033949;28;20247;-45
2022/07/23 05:18:01;;;;;;;5.20;4.73;;;27.30;49.40;;;;;;5032577;28;20494;-44
2022/07/23 05:20:26;;;;;;;5.50;5.10;;;27.20;49.60;;;;;;5032225;28;20185;-44
2022/07/23 05:22:52;;;;;;;9.43;6.07;;;27.30;49.80;;;;;;5033429;28;20593;-44
2022/07/23 05:25:18;;;;;;;6.50;5.90;;;27.20;49.90;;;;;;5033823;28;20236;-44
2022/07/23 05:27:43;;;;;;;6.30;5.80;;;27.20;49.80;;;;;;5032387;28;20225;-44
2022/07/23 05:30:09;;;;;;;6.03;5.60;;;27.40;49.60;;;;;;5033752;28;20684;-44
2022/07/23 05:32:36;;;;;;;6.77;6.17;;;27.60;49.30;;;;;;5033745;28;20193;-44
2022/07/23 05:35:03;;;;;;;5.50;5.10;;;27.70;48.90;;;;;;5033198;28;20438;-44
2022/07/23 05:37:28;;;;;;;7.00;6.30;;;27.70;49.00;;;;;;5032717;28;21016;-44
2022/07/23 05:39:54;;;;;;;49.30;7.13;;;27.80;48.90;;;;;;5033069;28;20432;-45
2022/07/23 05:42:19;;;;;;;6.83;6.33;;;27.90;48.80;;;;;;5033300;28;20644;-44
2022/07/23 05:44:45;;;;;;;6.57;5.97;;;28.00;48.60;;;;;;5027405;28;20221;-45
2022/07/23 05:47:11;;;;;;;7.07;6.37;;;28.10;48.30;;;;;;5030020;28;20582;-45
2022/07/23 05:49:38;;;;;;;6.83;6.23;;;28.10;48.50;;;;;;5032720;28;20547;-45
2022/07/23 05:52:07;;;;;;;6.30;5.70;;;28.00;48.60;;;;;;5032699;28;20204;-45
2022/07/23 05:54:36;;;;;;;6.60;6.00;;;28.00;48.80;;;;;;5032339;28;20516;-45
2022/07/23 05:57:03;;;;;;;7.00;6.23;;;28.10;48.70;;;;;;5032998;28;20483;-44
2022/07/23 05:59:29;;;;;;;8.17;7.47;;;28.10;48.90;;;;;;5032107;28;20443;-44
2022/07/23 06:01:55;;;;;;;7.10;6.57;;;28.00;49.10;;;;;;5033033;28;21177;-45
2022/07/23 06:04:20;;;;;;;7.03;6.53;;;28.00;49.30;;;;;;5032636;28;20467;-45
2022/07/23 06:06:46;;;;;;;7.97;7.37;;;28.20;48.90;;;;;;5033051;28;20676;-46
2022/07/23 06:09:13;;;;;;;6.10;5.60;;;28.40;48.70;;;;;;5031982;28;20201;-45
2022/07/23 06:11:39;;;;;;;6.33;5.80;;;28.50;48.30;;;;;;5032869;28;20201;-45
2022/07/23 06:14:05;;;;;;;6.90;6.30;;;28.70;47.80;;;;;;5030745;28;20844;-45
2022/07/23 06:16:31;;;;;;;6.20;5.80;;;28.70;48.00;;;;;;5032423;28;20487;-45
2022/07/23 06:18:56;;;;;;;6.13;5.73;;;28.80;48.80;;;;;;5031762;28;20507;-48
2022/07/23 06:21:22;;;;;;;7.10;6.47;;;28.90;49.20;;;;;;5032744;28;20255;-47
2022/07/23 06:23:48;;;;;;;6.20;5.70;;;29.00;48.50;;;;;;5032090;28;20201;-45
2022/07/23 06:26:14;;;;;;;6.37;5.87;;;28.90;48.40;;;;;;5032758;28;20193;-48
2022/07/23 06:28:39;;;;;;;6.00;5.60;;;29.00;48.00;;;;;;5031725;28;20190;-48
2022/07/23 06:31:05;;;;;;;6.43;5.97;;;29.00;47.40;;;;;;5032400;28;20193;-49
2022/07/23 06:33:30;;;;;;;7.03;6.43;;;29.10;47.40;;;;;;5030705;28;21003;-49
2022/07/23 06:35:56;;;;;;;5.90;5.40;;;29.10;47.40;;;;;;5032472;28;20195;-44
2022/07/23 06:38:22;;;;;;;6.10;5.60;;;29.20;47.30;;;;;;5031247;28;20281;-45
2022/07/23 06:40:47;;;;;;;6.83;6.20;;;29.20;47.10;;;;;;5030691;28;20201;-44
2022/07/23 06:43:13;;;;;;;7.03;5.93;;;29.30;46.90;;;;;;5031820;28;20868;-48
2022/07/23 06:45:38;;;;;;;6.97;6.30;;;29.40;47.20;;;;;;5025253;28;20675;-44
2022/07/23 06:48:04;;;;;;;6.20;5.80;;;29.60;47.10;;;;;;5031292;28;20231;-45
2022/07/23 06:50:30;;;;;;;7.67;6.77;;;29.80;46.40;;;;;;5032011;28;20235;-48
2022/07/23 06:52:56;;;;;;;6.17;5.67;;;29.80;44.50;;;;;;5031670;28;20200;-48
2022/07/23 06:55:21;;;;;;;7.80;6.80;;;29.90;44.10;;;;;;5032214;28;20197;-49
2022/07/23 06:57:47;;;;;;;5.93;5.40;;;30.00;44.00;;;;;;5031069;28;20486;-49
2022/07/23 07:00:13;;;;;;;6.63;6.13;;;30.00;43.90;;;;;;5031749;28;20201;-45
2022/07/23 07:02:38;;;;;;;6.70;6.10;;;30.10;43.90;;;;;;5030697;28;20201;-45
2022/07/23 07:05:04;;;;;;;7.70;7.00;;;30.10;43.50;;;;;;5031678;28;20182;-49
2022/07/23 07:07:30;;;;;;;7.23;6.67;;;30.10;43.70;;;;;;5029854;28;20359;-44
2022/07/23 07:09:55;;;;;;;6.70;6.10;;;30.10;43.50;;;;;;5031131;28;20185;-48
2022/07/23 07:12:21;;;;;;;8.00;7.27;;;30.10;43.40;;;;;;5031997;28;20286;-48
2022/07/23 07:14:46;;;;;;;7.23;6.50;;;30.00;43.60;;;;;;5031221;28;20584;-44
2022/07/23 07:17:12;;;;;;;10.90;6.27;;;29.80;44.50;;;;;;5030878;28;20239;-44
2022/07/23 07:19:38;;;;;;;7.33;6.60;;;29.70;45.00;;;;;;5031209;28;20276;-48
2022/07/23 07:22:03;;;;;;;7.47;6.87;;;29.60;45.20;;;;;;5031836;28;20557;-45
2022/07/23 07:24:29;;;;;;;7.37;6.67;;;29.60;45.30;;;;;;5030947;28;20193;-46
2022/07/23 07:26:54;;;;;;;7.40;6.80;;;29.60;45.40;;;;;;5031474;28;20228;-46
2022/07/23 07:29:20;;;;;;;7.57;6.97;;;29.60;45.40;;;;;;5030193;28;20201;-44
2022/07/23 07:31:46;;;;;;;7.63;6.93;;;29.70;45.60;;;;;;5031327;28;20280;-48
2022/07/23 07:34:11;;;;;;;8.10;7.30;;;29.70;45.80;;;;;;5029199;28;20193;-48
2022/07/23 07:36:37;;;;;;;8.50;7.70;;;29.70;45.90;;;;;;5031089;28;20306;-44
2022/07/23 07:39:04;;;;;;;8.10;7.13;;;29.40;46.20;;;;;;5030162;28;20674;-46
2022/07/23 07:41:30;;;;;;;8.33;7.53;;;29.40;46.40;;;;;;5031179;28;20564;-45
2022/07/23 07:43:56;;;;;;;8.00;7.20;;;29.50;46.80;;;;;;5030529;28;20420;-47
2022/07/23 07:46:23;;;;;;;9.10;8.30;;;29.20;47.10;;;;;;5023981;28;20432;-46
2022/07/23 07:48:50;;;;;;;8.63;7.63;;;29.20;47.50;;;;;;5030081;28;20204;-44
2022/07/23 07:51:15;;;;;;;10.73;6.77;;;29.30;47.50;;;;;;5031050;28;20954;-44
2022/07/23 07:53:41;;;;;;;8.40;7.80;;;29.40;47.50;;;;;;5030475;28;20448;-45
2022/07/23 07:56:07;;;;;;;10.20;7.43;;;29.40;47.50;;;;;;5031094;28;20595;-48
2022/07/23 07:58:32;;;;;;;8.83;8.13;;;29.50;47.80;;;;;;5029777;28;20315;-45
2022/07/23 08:00:58;;;;;;;9.43;8.57;;;29.50;48.10;;;;;;5029158;28;20201;-45
2022/07/23 08:03:24;;;;;;;8.93;8.23;;;29.60;47.90;;;;;;5029116;28;20292;-45
2022/07/23 08:05:49;;;;;;;9.27;8.47;;;29.60;47.70;;;;;;5030776;28;20185;-49
2022/07/23 08:08:15;;;;;;;9.13;8.33;;;29.50;47.40;;;;;;5029548;28;20221;-44
2022/07/23 08:10:41;;;;;;;7.90;7.20;;;29.60;47.40;;;;;;5030733;28;20611;-44
2022/07/23 08:13:07;;;;;;;10.13;6.80;;;29.50;47.50;;;;;;5029882;28;20243;-44
2022/07/23 08:15:32;;;;;;;8.30;7.40;;;29.40;47.60;;;;;;5030722;28;20620;-44
2022/07/23 08:17:59;;;;;;;8.03;7.43;;;29.50;47.40;;;;;;5029230;28;20287;-45
2022/07/23 08:20:26;;;;;;;8.40;7.40;;;29.30;48.00;;;;;;5030650;28;20239;-45
2022/07/23 08:23:02;;;;;;;8.87;8.17;;;29.10;48.90;;;;;;5030211;28;20424;-45
2022/07/23 08:25:31;;;;;;;8.60;7.80;;;29.10;49.00;;;;;;5030769;28;20435;-44
2022/07/23 08:27:58;;;;;;;8.20;7.50;;;29.20;48.70;;;;;;5027848;28;20577;-45
2022/07/23 08:30:25;;;;;;;8.83;8.13;;;29.40;49.20;;;;;;5030471;28;20881;-44
2022/07/23 08:33:01;;;;;;;8.97;8.10;;;29.50;49.00;;;;;;5029948;28;20428;-49
2022/07/23 08:35:38;;;;;;;8.57;7.80;;;29.80;48.00;;;;;;5030289;28;20526;-44
2022/07/23 08:38:07;;;;;;;7.27;6.60;;;30.00;46.90;;;;;;5029338;28;20506;-45
2022/07/23 08:40:35;;;;;;;7.20;6.60;;;30.10;46.10;;;;;;5030457;28;20452;-45
2022/07/23 08:43:05;;;;;;;7.10;6.50;;;30.10;45.90;;;;;;5029866;28;21231;-44
2022/07/23 08:45:36;;;;;;;7.70;7.03;;;30.20;45.60;;;;;;5022722;28;21262;-45
2022/07/23 08:48:03;;;;;;;8.07;7.30;;;30.20;45.70;;;;;;5029425;28;20430;-48
2022/07/23 08:50:29;;;;;;;7.83;7.10;;;30.20;46.80;;;;;;5030151;28;20435;-44
2022/07/23 08:52:57;;;;;;;8.50;7.73;;;30.20;47.80;;;;;;5029859;28;21136;-48
2022/07/23 08:55:23;;;;;;;8.40;7.63;;;30.20;47.80;;;;;;5028567;28;20452;-45
2022/07/23 08:57:53;;;;;;;7.87;7.10;;;30.20;46.90;;;;;;5029078;28;20494;-45
2022/07/23 09:00:21;;;;;;;7.73;7.13;;;30.20;47.40;;;;;;5030182;28;20197;-47
2022/07/23 09:02:47;;;;;;;8.60;7.90;;;30.30;47.30;;;;;;5029811;28;20467;-45
2022/07/23 09:05:14;;;;;;;7.73;6.90;;;30.40;46.40;;;;;;5030047;28;20440;-46
2022/07/23 09:08:03;;;;;;;6.70;6.10;;;30.60;46.10;;;;;;5029516;28;20821;-45
2022/07/23 09:10:29;;;;;;;7.07;6.57;;;30.80;45.30;;;;;;5029863;28;20916;-45
2022/07/23 09:12:55;;;;;;;8.23;7.53;;;31.00;43.60;;;;;;5029591;28;20466;-45
2022/07/23 09:15:20;;;;;;;7.67;7.07;;;31.00;43.80;;;;;;5028941;28;20648;-44
2022/07/23 09:17:46;;;;;;;6.33;5.73;;;31.10;44.10;;;;;;5028790;28;20239;-45
2022/07/23 09:20:15;;;;;;;7.40;6.90;;;31.20;44.10;;;;;;5030107;28;20201;-45
2022/07/23 09:22:46;;;;;;;7.17;6.60;;;31.40;42.80;;;;;;5028100;28;20432;-47
2022/07/23 09:25:17;;;;;;;7.17;6.57;;;31.50;42.40;;;;;;5030276;28;20439;-45
2022/07/23 09:27:56;;;;;;;6.70;6.20;;;31.80;41.60;;;;;;5032891;28;20428;-47
2022/07/23 09:30:29;;;;;;;6.30;5.90;;;32.10;40.40;;;;;;5033842;28;20818;-45
2022/07/23 09:33:05;;;;;;;5.70;5.30;;;32.30;38.60;;;;;;5033119;28;20435;-45
2022/07/23 09:35:53;;;;;;;5.87;5.37;;;32.50;37.70;;;;;;5033385;28;20494;-44
2022/07/23 09:38:21;;;;;;;6.60;6.00;;;32.70;37.80;;;;;;5032714;28;20496;-45
2022/07/23 09:41:04;;;;;;;6.33;5.23;;;32.90;37.50;;;;;;5033542;28;20436;-44
2022/07/23 09:43:30;;;;;;;6.00;5.60;;;33.10;37.50;;;;;;5032777;28;20432;-45
2022/07/23 09:46:19;;;;;;;6.67;5.70;;;33.30;38.20;;;;;;5025604;28;20482;-48
2022/07/23 09:48:45;;;;;;;5.53;5.13;;;33.60;37.40;;;;;;5030953;28;20197;-46
2022/07/23 09:51:11;;;;;;;6.13;5.63;;;33.70;36.50;;;;;;5033243;28;20442;-45
2022/07/23 09:53:37;;;;;;;6.63;6.03;;;33.90;36.30;;;;;;5032830;28;20920;-44
2022/07/23 09:56:03;;;;;;;7.73;7.03;;;34.00;36.30;;;;;;5033235;28;20200;-46
2022/07/23 09:58:30;;;;;;;6.30;5.80;;;34.20;36.00;;;;;;5032271;28;20571;-45
2022/07/23 10:00:58;;;;;;;6.40;5.87;;;34.20;36.50;;;;;;5033178;28;20420;-46
2022/07/23 10:03:24;;;;;;;6.50;5.90;;;34.30;36.00;;;;;;5032449;28;20511;-46
2022/07/23 10:05:50;;;;;;;7.43;6.83;;;34.50;36.20;;;;;;5033118;28;20540;-44
2022/07/23 10:08:18;;;;;;;5.97;5.47;;;34.70;35.80;;;;;;5031993;28;20485;-45
2022/07/23 10:10:46;;;;;;;5.93;5.33;;;34.90;34.30;;;;;;5033137;28;20424;-46
2022/07/23 10:15:48;;;;;;;6.23;5.77;;;34.90;34.40;;;;;;5031227;28;20435;-45
2022/07/23 10:18:14;;;;;;;5.90;5.50;;;35.10;34.10;;;;;;5031759;28;20484;-45
2022/07/23 10:20:40;;;;;;;7.30;6.20;;;35.20;33.50;;;;;;5032845;28;20243;-45
2022/07/23 10:23:35;;;;;;;6.03;5.63;;;35.40;33.10;;;;;;5032194;28;20193;-46
2022/07/23 10:26:00;;;;;;;6.13;5.63;;;35.50;33.10;;;;;;5032731;28;20428;-45
2022/07/23 10:28:59;;;;;;;5.20;4.80;;;35.60;32.30;;;;;;5031737;28;20430;-45
2022/07/23 10:31:49;;;;;;;5.67;5.27;;;35.40;32.20;;;;;;5032684;28;20189;-45
2022/07/23 10:34:35;;;;;;;6.50;6.00;;;35.60;32.40;;;;;;5031850;28;20425;-45
2022/07/23 10:37:28;;;;;;;6.57;6.00;;;35.60;32.60;;;;;;5031559;28;21332;-45
2022/07/23 10:40:22;;;;;;;5.80;5.40;;;35.80;31.60;;;;;;5031967;28;20467;-46
2022/07/23 10:42:51;;;;;;;6.37;5.80;;;36.00;30.90;;;;;;5030270;28;20618;-45
2022/07/23 10:45:41;;;;;;;5.77;5.30;;;35.90;30.90;;;;;;5024604;28;20959;-45
2022/07/23 10:48:20;;;;;;;5.80;5.40;;;36.20;31.10;;;;;;5031555;28;20436;-45
2022/07/23 10:51:07;;;;;;;5.67;5.17;;;36.10;29.90;;;;;;5032142;28;20939;-45
2022/07/23 10:53:51;;;;;;;7.07;6.57;;;36.20;30.10;;;;;;5031402;28;20489;-45
2022/07/23 10:56:37;;;;;;;5.87;5.37;;;36.40;30.90;;;;;;5032127;28;20432;-45
2022/07/23 10:59:04;;;;;;;5.53;5.23;;;36.40;30.50;;;;;;5031052;28;20459;-46
2022/07/23 11:01:38;;;;;;;5.73;5.33;;;36.50;30.50;;;;;;5031961;28;20428;-46
2022/07/23 11:04:07;;;;;;;6.77;6.17;;;36.60;30.40;;;;;;5031276;28;20935;-45
2022/07/23 11:06:50;;;;;;;5.63;5.23;;;36.80;30.60;;;;;;5031973;28;20795;-45
2022/07/23 11:09:30;;;;;;;6.93;6.33;;;37.00;30.30;;;;;;5029752;28;20939;-45
2022/07/23 11:12:21;;;;;;;7.30;6.80;;;37.20;29.80;;;;;;5031769;28;20442;-45
2022/07/23 11:15:07;;;;;;;6.10;5.63;;;37.10;29.40;;;;;;5031118;28;20428;-45
2022/07/23 11:17:39;;;;;;;5.77;5.37;;;37.10;30.20;;;;;;5031134;28;20899;-45
2022/07/23 11:20:11;;;;;;;7.93;6.10;;;37.10;30.50;;;;;;5031499;28;20788;-45
2022/07/23 11:22:48;;;;;;;5.50;5.20;;;37.10;31.30;;;;;;5031213;28;20504;-45
2022/07/23 11:25:28;;;;;;;6.90;6.40;;;37.20;30.60;;;;;;5031569;28;20926;-46
2022/07/23 11:27:55;;;;;;;6.80;6.30;;;37.40;30.40;;;;;;5030509;28;20442;-46
2022/07/23 11:30:26;;;;;;;6.80;6.30;;;37.60;30.10;;;;;;5031839;28;20996;-45
2022/07/23 11:33:07;;;;;;;6.70;6.20;;;37.70;30.10;;;;;;5030769;28;20441;-46
2022/07/23 11:35:37;;;;;;;7.20;6.60;;;37.60;30.20;;;;;;5030362;28;20458;-48
2022/07/23 11:38:13;;;;;;;6.67;6.17;;;37.60;30.10;;;;;;5030138;28;21052;-45
2022/07/23 11:40:39;;;;;;;7.57;6.97;;;37.60;30.60;;;;;;5031301;28;20461;-46
2022/07/23 11:43:07;;;;;;;6.63;6.13;;;37.80;29.90;;;;;;5030891;28;20427;-45
2022/07/23 11:45:40;;;;;;;7.30;6.80;;;37.90;29.60;;;;;;5023720;28;20443;-46
2022/07/23 11:48:09;;;;;;;8.47;7.10;;;37.90;29.70;;;;;;5029770;28;20432;-46
2022/07/23 11:50:36;;;;;;;7.27;6.70;;;37.70;29.70;;;;;;5031120;28;20462;-45
2022/07/23 11:53:02;;;;;;;7.20;6.80;;;37.80;30.00;;;;;;5030329;28;20424;-46
2022/07/23 11:55:29;;;;;;;7.30;6.80;;;37.90;29.50;;;;;;5030938;28;20432;-46
2022/07/23 11:57:58;;;;;;;7.27;6.67;;;38.00;29.80;;;;;;5029943;28;20475;-46
2022/07/23 12:00:26;;;;;;;7.03;6.63;;;38.00;29.10;;;;;;5030711;28;20519;-45
2022/07/23 12:02:56;;;;;;;6.60;6.00;;;38.00;29.30;;;;;;5028765;28;20415;-47
2022/07/23 12:05:30;;;;;;;5.97;5.53;;;38.00;28.20;;;;;;5031022;28;20435;-45
2022/07/23 12:07:58;;;;;;;6.17;5.77;;;37.80;28.40;;;;;;5029990;28;20439;-46
2022/07/23 12:10:25;;;;;;;6.27;5.77;;;37.60;28.80;;;;;;5030877;28;20457;-45
2022/07/23 12:12:52;;;;;;;6.20;5.80;;;37.40;28.80;;;;;;5030284;28;20869;-45
2022/07/23 12:15:24;;;;;;;7.10;6.60;;;37.20;29.50;;;;;;5030552;28;20463;-46
2022/07/23 12:17:51;;;;;;;6.17;5.77;;;37.10;30.10;;;;;;5029757;28;20678;-45
2022/07/23 12:20:22;;;;;;;6.17;5.67;;;37.10;30.60;;;;;;5030679;28;20459;-45
2022/07/23 12:22:51;;;;;;;5.90;5.60;;;37.20;31.20;;;;;;5030075;28;20458;-45
2022/07/23 12:25:23;;;;;;;6.10;5.63;;;37.40;30.30;;;;;;5030819;28;20435;-47
2022/07/23 12:28:05;;;;;;;6.30;5.77;;;37.60;29.60;;;;;;5029977;28;20428;-48
2022/07/23 12:30:34;;;;;;;7.30;6.70;;;37.90;29.10;;;;;;5028986;28;20454;-47
2022/07/23 12:33:00;;;;;;;6.57;5.77;;;37.80;29.40;;;;;;5029872;28;21177;-45
2022/07/23 12:35:33;;;;;;;7.43;6.93;;;37.80;28.80;;;;;;5030428;28;20481;-47
2022/07/23 12:38:04;;;;;;;8.17;6.57;;;37.90;28.60;;;;;;5029394;28;20499;-50
2022/07/23 12:40:39;;;;;;;6.73;6.33;;;38.00;28.50;;;;;;5030263;28;20459;-45
2022/07/23 12:43:08;;;;;;;6.80;6.40;;;38.00;28.10;;;;;;5029866;28;20513;-47
2022/07/23 12:45:50;;;;;;;7.10;6.40;;;38.10;29.20;;;;;;5022968;28;20435;-48
2022/07/23 12:48:27;;;;;;;7.07;6.57;;;38.20;29.00;;;;;;5029267;28;20918;-46
2022/07/23 12:50:58;;;;;;;6.60;6.10;;;38.30;29.10;;;;;;5030429;28;20437;-48
2022/07/23 12:53:27;;;;;;;7.37;6.80;;;38.40;29.50;;;;;;5029753;28;20462;-49